Time;durP1;ratioP1;P1;durP2;ratioP2;P2;SDS_P1;SDS_P2;PMS_P1;PMS_P2;Temp;Humidity;BMP_temperature;BMP_pressure;BME280_temperature;BME280_humidity;BME280_pressure;Samples;Min_cycle;Max_cycle;Signal;HPM_P1;HPM_P2
2022/04/27 00:01:27;;;;;;;0.93;0.60;;;;;;;10.46;78.37;99598.98;1659526;85;21568;-51
2022/04/27 00:03:55;;;;;;;1.10;0.60;;;;;;;10.43;78.42;99607.19;1667164;85;21512;-51
2022/04/27 00:06:23;;;;;;;5.85;0.60;;;;;;;10.40;78.42;99603.30;1670846;85;21588;-51
2022/04/27 00:08:50;;;;;;;0.60;0.40;;;;;;;10.39;78.52;99604.23;1658470;85;21109;-51
2022/04/27 00:11:18;;;;;;;0.60;0.50;;;;;;;10.38;78.45;99598.48;1653571;85;21045;-51
2022/04/27 00:13:45;;;;;;;0.85;0.60;;;;;;;10.38;78.44;99603.37;1654876;85;21136;-51
2022/04/27 00:16:12;;;;;;;0.50;0.47;;;;;;;10.37;78.33;99605.69;1653911;85;21077;-51
2022/04/27 00:18:38;;;;;;;1.07;0.50;;;;;;;10.36;78.34;99603.06;1659235;84;21097;-51
2022/04/27 00:21:04;;;;;;;2.05;0.50;;;;;;;10.33;78.22;99609.46;1656828;85;21607;-51
2022/04/27 00:23:34;;;;;;;0.70;0.60;;;;;;;10.30;78.11;99600.19;1630239;86;22188;-51
2022/04/27 00:26:00;;;;;;;0.60;0.45;;;;;;;10.28;77.96;99603.92;1689233;84;22225;-51
2022/04/27 00:28:28;;;;;;;0.90;0.53;;;;;;;10.24;77.90;99609.44;1687734;84;21073;-51
2022/04/27 00:30:55;;;;;;;0.50;0.50;;;;;;;10.20;77.83;99612.37;1687098;84;21110;-51
2022/04/27 00:33:23;;;;;;;0.70;0.60;;;;;;;10.18;77.88;99623.67;1655286;85;21058;-51
2022/04/27 00:35:52;;;;;;;0.50;0.50;;;;;;;10.15;77.86;99629.16;1687578;84;21053;-51
2022/04/27 00:38:19;;;;;;;1.70;0.50;;;;;;;10.13;77.88;99635.07;1687241;84;21515;-51
2022/04/27 00:40:47;;;;;;;2.60;0.60;;;;;;;10.10;77.95;99632.55;1687467;84;21761;-51
2022/04/27 00:43:15;;;;;;;1.00;0.50;;;;;;;10.08;77.94;99639.34;1686233;84;21087;-50
2022/04/27 00:45:41;;;;;;;0.57;0.50;;;;;;;10.05;77.90;99639.48;1658731;85;21007;-50
2022/04/27 00:48:09;;;;;;;0.78;0.50;;;;;;;10.01;77.93;99637.90;1691610;83;21291;-50
2022/04/27 00:50:38;;;;;;;1.30;0.60;;;;;;;9.99;77.97;99640.25;1655306;85;21947;-51
2022/04/27 00:53:04;;;;;;;0.95;0.47;;;;;;;9.93;78.01;99642.77;1654129;85;21137;-51
2022/04/27 00:55:32;;;;;;;0.60;0.50;;;;;;;9.92;78.00;99649.55;1686466;84;21110;-51
2022/04/27 00:57:59;;;;;;;0.70;0.50;;;;;;;9.87;77.99;99647.94;1687575;84;21352;-50
2022/04/27 01:00:28;;;;;;;1.15;0.50;;;;;;;9.86;78.08;99650.26;1685239;84;21189;-51
2022/04/27 01:02:55;;;;;;;1.17;0.50;;;;;;;9.83;78.08;99642.80;1690423;84;21387;-51
2022/04/27 01:05:23;;;;;;;1.10;0.60;;;;;;;9.82;78.15;99648.64;1678639;83;21527;-51
2022/04/27 01:07:50;;;;;;;0.55;0.40;;;;;;;9.82;78.27;99655.83;1654046;85;21041;-51
2022/04/27 01:10:18;;;;;;;1.02;0.50;;;;;;;9.81;78.33;99649.58;1685184;84;21074;-52
2022/04/27 01:12:45;;;;;;;1.50;0.40;;;;;;;9.82;78.25;99651.80;1641929;85;21023;-51
2022/04/27 01:15:33;;;;;;;1.20;0.50;;;;;;;9.78;78.21;99650.22;1661334;85;21330;-51
2022/04/27 01:17:59;;;;;;;0.50;0.50;;;;;;;9.76;78.23;99649.41;1684046;83;21052;-51
2022/04/27 01:20:44;;;;;;;2.05;0.50;;;;;;;9.72;78.28;99655.85;1687661;84;21098;-51
2022/04/27 01:23:08;;;;;;;1.82;0.40;;;;;;;9.71;78.29;99659.48;1690120;83;21528;-51
2022/04/27 01:25:56;;;;;;;0.80;0.50;;;;;;;9.68;78.26;99669.05;1683098;84;21468;-50
2022/04/27 01:28:24;;;;;;;3.65;0.50;;;;;;;9.65;78.24;99671.39;1656065;85;21035;-51
2022/04/27 01:31:00;;;;;;;2.05;0.42;;;;;;;9.61;78.36;99667.59;1688489;83;20986;-51
2022/04/27 01:33:27;;;;;;;4.22;0.50;;;;;;;9.60;78.38;99672.09;1685457;84;21632;-51
2022/04/27 01:35:54;;;;;;;1.27;0.53;;;;;;;9.58;78.39;99673.97;1692547;84;21465;-51
2022/04/27 01:38:21;;;;;;;1.92;0.40;;;;;;;9.57;78.36;99672.69;1686108;84;21655;-50
2022/04/27 01:40:53;;;;;;;0.88;0.60;;;;;;;9.54;78.39;99670.12;1690187;83;21098;-50
2022/04/27 01:43:24;;;;;;;0.90;0.60;;;;;;;9.52;78.45;99671.56;1677020;84;21150;-51
2022/04/27 01:45:59;;;;;;;0.80;0.60;;;;;;;9.48;78.47;99672.16;1688155;84;21050;-51
2022/04/27 01:48:30;;;;;;;0.75;0.40;;;;;;;9.44;78.53;99665.16;1689153;83;21504;-49
2022/04/27 01:50:54;;;;;;;0.80;0.50;;;;;;;9.41;78.58;99671.16;1674153;83;21078;-50
2022/04/27 01:56:06;;;;;;;0.50;0.40;;;;;;;9.34;78.65;99672.39;1686226;84;21134;-51
2022/04/27 01:58:34;;;;;;;1.22;0.50;;;;;;;9.31;78.80;99669.83;1680444;83;21053;-50
2022/04/27 02:01:03;;;;;;;0.78;0.50;;;;;;;9.29;78.93;99671.23;1681597;84;21104;-51
2022/04/27 02:03:29;;;;;;;0.62;0.50;;;;;;;9.29;79.01;99675.26;1684101;83;21069;-51
2022/04/27 02:05:57;;;;;;;0.45;0.45;;;;;;;9.29;79.10;99669.89;1693765;84;21574;-51
2022/04/27 02:08:25;;;;;;;0.55;0.40;;;;;;;9.28;79.22;99674.85;1686102;84;22414;-50
2022/04/27 02:10:54;;;;;;;1.42;0.50;;;;;;;9.27;79.26;99677.12;1685920;84;21034;-51
2022/04/27 02:13:23;;;;;;;0.45;0.45;;;;;;;9.26;79.33;99676.76;1659048;85;21077;-51
2022/04/27 02:15:51;;;;;;;1.30;0.60;;;;;;;9.24;79.44;99672.38;1692041;84;21153;-50
2022/04/27 02:18:25;;;;;;;0.60;0.50;;;;;;;9.23;79.44;99674.66;1685980;84;21086;-51
2022/04/27 02:20:52;;;;;;;0.98;0.50;;;;;;;9.20;79.52;99675.66;1687621;84;21642;-51
2022/04/27 02:23:20;;;;;;;1.42;0.50;;;;;;;9.19;79.54;99686.46;1680943;83;21468;-51
2022/04/27 02:25:48;;;;;;;0.60;0.53;;;;;;;9.17;79.55;99688.37;1649598;85;21513;-51
2022/04/27 02:28:16;;;;;;;0.50;0.42;;;;;;;9.15;79.62;99687.55;1688149;84;21098;-51
2022/04/27 02:30:43;;;;;;;1.47;0.55;;;;;;;9.13;79.69;99687.61;1689008;84;20975;-50
2022/04/27 02:33:12;;;;;;;4.78;1.12;;;;;;;9.12;79.72;99688.55;1653472;85;21172;-51
2022/04/27 02:35:39;;;;;;;0.60;0.50;;;;;;;9.12;79.80;99688.55;1651155;85;21116;-51
2022/04/27 02:38:05;;;;;;;0.47;0.47;;;;;;;9.13;79.75;99683.59;1685346;84;21101;-51
2022/04/27 02:40:34;;;;;;;4.47;0.55;;;;;;;9.14;79.72;99688.02;1688482;84;21348;-51
2022/04/27 02:43:01;;;;;;;0.70;0.60;;;;;;;9.13;79.63;99683.59;1680671;84;21070;-51
2022/04/27 02:45:29;;;;;;;3.72;0.60;;;;;;;9.11;79.56;99686.80;1655008;85;21181;-51
2022/04/27 02:47:56;;;;;;;1.87;0.60;;;;;;;9.08;79.50;99693.20;1683583;84;21626;-51
2022/04/27 02:53:08;;;;;;;1.60;0.60;;;;;;;9.01;79.37;99692.19;1687044;84;21576;-51
2022/04/27 02:55:35;;;;;;;1.12;0.60;;;;;;;8.97;79.38;99698.14;1688295;84;21069;-51
2022/04/27 02:58:02;;;;;;;2.25;0.40;;;;;;;8.96;79.34;99692.84;1685652;84;21207;-51
2022/04/27 03:00:30;;;;;;;0.62;0.60;;;;;;;8.93;79.30;99701.88;1692013;84;21022;-51
2022/04/27 03:02:58;;;;;;;0.60;0.50;;;;;;;8.92;79.28;99706.88;1681459;84;21098;-51
2022/04/27 03:05:25;;;;;;;0.72;0.50;;;;;;;8.91;79.37;99705.59;1692939;84;21124;-51
2022/04/27 03:07:53;;;;;;;0.80;0.50;;;;;;;8.90;79.34;99704.72;1658888;85;21067;-51
2022/04/27 03:10:20;;;;;;;0.60;0.50;;;;;;;8.90;79.30;99711.89;1685106;84;21744;-51
2022/04/27 03:12:46;;;;;;;0.78;0.50;;;;;;;8.90;79.27;99714.58;1651890;85;21067;-51
2022/04/27 03:15:14;;;;;;;2.00;0.60;;;;;;;8.88;79.24;99713.30;1688076;84;21090;-51
2022/04/27 03:17:41;;;;;;;0.50;0.50;;;;;;;8.89;79.24;99718.20;1661349;84;21122;-51
2022/04/27 03:20:09;;;;;;;0.82;0.57;;;;;;;8.87;79.12;99722.75;1675510;84;21058;-51
2022/04/27 03:22:37;;;;;;;2.17;0.60;;;;;;;8.85;79.03;99725.49;1690055;83;21058;-51
2022/04/27 03:25:06;;;;;;;1.35;0.60;;;;;;;8.82;78.99;99719.39;1684225;83;21273;-51
2022/04/27 03:27:32;;;;;;;0.80;0.60;;;;;;;8.81;78.97;99731.06;1697078;83;21133;-51
2022/04/27 03:29:59;;;;;;;0.88;0.50;;;;;;;8.78;78.89;99733.86;1698199;83;21065;-51
2022/04/27 03:32:26;;;;;;;1.32;0.60;;;;;;;8.75;78.91;99732.67;1700393;83;21057;-51
2022/04/27 03:34:58;;;;;;;1.00;0.60;;;;;;;8.72;79.05;99737.22;1699817;83;21329;-51
2022/04/27 03:37:27;;;;;;;1.80;1.12;;;;;;;8.71;79.05;99739.49;1696719;83;21090;-51
2022/04/27 03:39:53;;;;;;;2.30;0.70;;;;;;;8.72;79.04;99730.97;1669060;83;21074;-51
2022/04/27 03:42:21;;;;;;;1.52;0.70;;;;;;;8.72;79.10;99726.95;1698141;83;21576;-51
2022/04/27 03:44:50;;;;;;;0.75;0.70;;;;;;;8.73;79.16;99732.26;1637142;86;21097;-51
2022/04/27 03:47:19;;;;;;;0.90;0.68;;;;;;;8.74;79.26;99733.13;1698850;83;21151;-50
2022/04/27 03:49:45;;;;;;;1.00;0.90;;;;;;;8.78;79.30;99743.25;1701721;83;21058;-51
2022/04/27 03:52:11;;;;;;;2.10;0.70;;;;;;;8.80;79.38;99751.66;1671133;83;21106;-51
2022/04/27 03:54:40;;;;;;;1.02;0.60;;;;;;;8.86;79.46;99750.52;1698521;83;22038;-51
2022/04/27 03:57:07;;;;;;;0.85;0.60;;;;;;;8.94;79.51;99749.27;1699268;82;21475;-50
2022/04/27 03:59:33;;;;;;;2.80;0.68;;;;;;;9.04;79.54;99755.13;1695639;82;21810;-49
2022/04/27 04:02:02;;;;;;;0.80;0.60;;;;;;;9.17;79.53;99754.16;1700085;83;21415;-48
2022/04/27 04:04:29;;;;;;;1.67;0.70;;;;;;;9.34;79.39;99761.03;1663395;85;20971;-49
2022/04/27 04:06:56;;;;;;;0.85;0.60;;;;;;;9.57;79.25;99748.80;1675502;83;21064;-51
2022/04/27 04:09:24;;;;;;;1.35;1.15;;;;;;;9.95;78.95;99756.98;1700966;83;21026;-51
2022/04/27 04:11:51;;;;;;;0.90;0.80;;;;;;;10.40;78.22;99742.74;1701467;83;21421;-48
2022/04/27 04:14:19;;;;;;;2.30;0.70;;;;;;;10.87;77.16;99752.56;1699935;83;21082;-49
2022/04/27 04:16:52;;;;;;;0.90;0.70;;;;;;;11.36;75.80;99756.35;1700623;83;21364;-49
2022/04/27 04:19:28;;;;;;;0.80;0.70;;;;;;;11.91;74.37;99749.93;1700607;82;21669;-51
2022/04/27 04:22:09;;;;;;;0.78;0.70;;;;;;;12.40;72.58;99753.03;1699522;83;21069;-49
2022/04/27 04:24:39;;;;;;;0.90;0.70;;;;;;;12.85;70.69;99750.02;1694359;83;21038;-48
2022/04/27 04:29:50;;;;;;;;;;;;;;;13.67;67.42;99756.47;1708178;83;22313;-50
2022/04/27 04:32:17;;;;;;;1.05;0.55;;;;;;;13.94;65.65;99748.89;1706848;83;20156;-51
2022/04/27 04:34:50;;;;;;;2.08;0.90;;;;;;;14.03;64.56;99754.22;1700700;83;21039;-50
2022/04/27 04:38:01;;;;;;;1.97;0.70;;;;;;;14.12;63.16;99750.91;1763919;79;22517;-50
2022/04/27 04:40:27;;;;;;;1.20;0.80;;;;;;;13.98;61.95;99748.20;1738463;81;21033;-50
2022/04/27 04:42:55;;;;;;;1.42;0.90;;;;;;;13.74;62.29;99753.77;1735976;80;22196;-51
2022/04/27 04:45:23;;;;;;;1.67;0.78;;;;;;;13.55;62.57;99760.30;1732226;81;21022;-51
2022/04/27 04:48:08;;;;;;;0.80;0.70;;;;;;;13.39;63.08;99752.72;1735009;81;21017;-51
2022/04/27 04:50:45;;;;;;;1.42;0.78;;;;;;;13.23;63.43;99761.34;1737094;81;21095;-51
2022/04/27 04:53:23;;;;;;;1.10;0.70;;;;;;;13.06;63.60;99766.83;1734762;81;21514;-52
2022/04/27 04:55:57;;;;;;;1.02;0.70;;;;;;;12.95;64.05;99774.20;1730501;81;21639;-51
2022/04/27 04:58:35;;;;;;;1.02;0.60;;;;;;;12.80;64.90;99777.78;1694194;82;20962;-50
2022/04/27 05:01:15;;;;;;;0.82;0.60;;;;;;;12.80;64.90;99777.78;1654716;82;21072;-51
2022/04/27 05:04:00;;;;;;;1.55;0.60;;;;;;;12.73;65.16;99776.40;1710700;82;21639;-53
2022/04/27 05:06:30;;;;;;;0.60;0.60;;;;;;;12.72;65.11;99782.27;1709918;82;21109;-51
2022/04/27 05:09:02;;;;;;;0.60;0.50;;;;;;;12.72;65.61;99786.80;1704844;82;22198;-51
2022/04/27 05:11:30;;;;;;;1.70;0.60;;;;;;;12.75;65.74;99780.77;1672164;83;21058;-51
2022/04/27 05:14:02;;;;;;;0.78;0.50;;;;;;;12.78;65.68;99789.15;1663013;84;21496;-54
2022/04/27 05:16:49;;;;;;;1.22;0.60;;;;;;;12.80;65.45;99788.11;1660550;84;21101;-52
2022/04/27 05:19:29;;;;;;;4.42;0.70;;;;;;;12.80;65.50;99784.06;1590365;85;21113;-51
2022/04/27 05:22:00;;;;;;;1.37;0.62;;;;;;;12.77;64.97;99793.67;1601224;85;21137;-51
2022/04/27 05:24:46;;;;;;;2.87;0.90;;;;;;;12.77;64.97;99793.67;1657392;84;21604;-51
2022/04/27 05:27:24;;;;;;;0.60;0.60;;;;;;;12.75;65.02;99797.45;1656859;85;25050;-51
2022/04/27 05:32:55;;;;;;;0.88;0.50;;;;;;;12.75;65.28;99800.15;1661482;84;21701;-52
2022/04/27 05:35:24;;;;;;;1.40;0.50;;;;;;;12.75;65.28;99800.15;1659432;84;21294;-51
2022/04/27 05:37:53;;;;;;;0.95;0.80;;;;;;;12.79;65.18;99805.75;1639751;85;21030;-51
2022/04/27 05:40:31;;;;;;;0.57;0.57;;;;;;;12.82;65.05;99801.06;1644361;85;21510;-51
2022/04/27 05:43:16;;;;;;;;;;;;;;;12.88;65.33;99799.83;1696891;82;21109;-51
2022/04/27 05:45:48;;;;;;;0.60;0.50;;;;;;;12.94;65.64;99808.05;1674297;83;20458;-52
2022/04/27 05:48:33;;;;;;;0.70;0.53;;;;;;;13.01;65.32;99805.42;1693218;83;21163;-51
2022/04/27 05:51:06;;;;;;;0.65;0.60;;;;;;;13.04;64.73;99796.64;1656288;82;21525;-52
2022/04/27 05:53:41;;;;;;;0.50;0.50;;;;;;;13.07;64.43;99801.00;1679119;82;21281;-51
2022/04/27 05:56:13;;;;;;;0.70;0.60;;;;;;;13.07;63.26;99809.11;1664602;83;21097;-51
2022/04/27 05:58:42;;;;;;;0.60;0.60;;;;;;;13.07;63.26;99809.11;1691598;83;21594;-52
2022/04/27 06:01:29;;;;;;;1.60;0.60;;;;;;;13.04;62.71;99809.28;1695491;83;21720;-51
2022/04/27 06:03:59;;;;;;;1.55;0.80;;;;;;;13.04;62.71;99809.28;1697625;82;20938;-52
2022/04/27 06:06:25;;;;;;;1.80;0.50;;;;;;;13.05;62.96;99811.89;1695921;82;21121;-51
2022/04/27 06:08:54;;;;;;;0.50;0.50;;;;;;;13.08;63.30;99810.86;1691490;82;21099;-51
2022/04/27 06:11:24;;;;;;;0.60;0.50;;;;;;;13.14;62.86;99823.56;1699841;82;21057;-52
2022/04/27 06:13:55;;;;;;;0.60;0.60;;;;;;;13.17;62.67;99830.63;1666915;83;21536;-52
2022/04/27 06:16:33;;;;;;;1.40;0.70;;;;;;;13.18;61.85;99824.27;1659111;85;21138;-52
2022/04/27 06:19:01;;;;;;;0.60;0.60;;;;;;;13.18;61.85;99824.27;1696955;83;22444;-52
2022/04/27 06:21:31;;;;;;;1.07;0.57;;;;;;;13.17;62.45;99821.17;1702435;82;22314;-53
2022/04/27 06:24:00;;;;;;;0.62;0.60;;;;;;;13.21;62.73;99831.70;1673700;82;21079;-51
2022/04/27 06:26:27;;;;;;;0.55;0.55;;;;;;;13.24;62.84;99827.48;1693963;83;21149;-52
2022/04/27 06:28:53;;;;;;;3.65;0.60;;;;;;;13.28;62.15;99829.52;1700689;83;21090;-52
2022/04/27 06:31:20;;;;;;;0.55;0.42;;;;;;;13.28;62.15;99829.52;1694078;83;21054;-52
2022/04/27 06:33:47;;;;;;;0.57;0.50;;;;;;;13.35;62.10;99836.81;1693285;83;21068;-52
2022/04/27 06:36:14;;;;;;;0.60;0.53;;;;;;;13.44;61.55;99836.28;1695074;83;21153;-51
2022/04/27 06:38:40;;;;;;;0.70;0.60;;;;;;;13.51;61.37;99839.88;1696271;82;21702;-52
2022/04/27 06:41:08;;;;;;;0.65;0.60;;;;;;;13.60;61.06;99846.58;1698076;83;21063;-52
2022/04/27 06:43:37;;;;;;;0.60;0.50;;;;;;;13.66;60.26;99842.63;1694708;82;21699;-53
2022/04/27 06:46:24;;;;;;;1.62;0.60;;;;;;;13.70;60.50;99846.88;1661000;84;21669;-52
2022/04/27 06:49:09;;;;;;;0.80;0.70;;;;;;;13.71;60.52;99844.56;1696624;82;20903;-51
2022/04/27 06:51:48;;;;;;;0.60;0.60;;;;;;;13.74;60.06;99853.86;1654009;83;21062;-52
2022/04/27 06:54:16;;;;;;;2.00;0.50;;;;;;;13.73;59.15;99857.05;1646031;83;21626;-52
2022/04/27 06:57:01;;;;;;;0.60;0.60;;;;;;;13.73;59.05;99861.58;1698803;82;21069;-51
2022/04/27 06:59:34;;;;;;;0.60;0.55;;;;;;;13.70;58.45;99866.69;1693341;82;21042;-52
2022/04/27 07:02:03;;;;;;;0.60;0.60;;;;;;;13.66;57.90;99869.67;1694422;82;21078;-51
2022/04/27 07:04:34;;;;;;;0.72;0.70;;;;;;;13.61;58.30;99876.22;1699877;83;21433;-52
2022/04/27 07:07:02;;;;;;;0.78;0.70;;;;;;;13.58;58.96;99873.71;1678934;83;21448;-51
2022/04/27 07:09:29;;;;;;;0.95;0.60;;;;;;;13.59;59.65;99881.34;1697119;83;21062;-51
2022/04/27 07:11:57;;;;;;;1.45;0.60;;;;;;;13.64;60.30;99879.23;1699026;83;21579;-52
2022/04/27 07:14:25;;;;;;;1.07;0.60;;;;;;;13.67;60.21;99876.84;1696533;82;21125;-52
2022/04/27 07:16:52;;;;;;;1.57;0.70;;;;;;;13.76;59.91;99887.12;1700522;83;21260;-52
2022/04/27 07:19:20;;;;;;;0.75;0.60;;;;;;;13.78;59.22;99887.91;1699137;82;21042;-52
2022/04/27 07:21:48;;;;;;;1.00;0.90;;;;;;;13.81;58.68;99878.23;1685191;82;21050;-51
2022/04/27 07:24:14;;;;;;;0.80;0.55;;;;;;;13.85;59.15;99890.16;1697212;82;21582;-51
2022/04/27 07:26:42;;;;;;;0.60;0.60;;;;;;;13.89;59.22;99880.88;1695800;83;21605;-52
2022/04/27 07:29:09;;;;;;;0.60;0.50;;;;;;;13.94;59.50;99881.48;1693904;83;21890;-52
2022/04/27 07:31:37;;;;;;;0.80;0.70;;;;;;;14.02;59.68;99883.73;1696019;82;21026;-51
2022/04/27 07:34:05;;;;;;;0.80;0.60;;;;;;;14.11;59.04;99887.72;1696294;83;21065;-52
2022/04/27 07:36:31;;;;;;;1.70;0.60;;;;;;;14.16;58.78;99888.30;1692223;82;21089;-51
2022/04/27 07:38:58;;;;;;;1.05;0.75;;;;;;;14.20;57.97;99891.22;1707207;82;21102;-52
2022/04/27 07:41:24;;;;;;;1.05;0.70;;;;;;;14.21;57.90;99888.88;1707498;82;21753;-51
2022/04/27 07:43:51;;;;;;;5.08;0.70;;;;;;;14.24;57.54;99892.76;1705624;82;21492;-52
2022/04/27 07:46:17;;;;;;;0.55;0.55;;;;;;;14.27;57.18;99892.58;1705637;82;21145;-50
2022/04/27 07:48:44;;;;;;;0.60;0.60;;;;;;;14.34;57.15;99889.41;1705505;82;21551;-51
2022/04/27 07:51:10;;;;;;;0.60;0.53;;;;;;;14.45;57.86;99891.97;1707862;82;21118;-51
2022/04/27 07:53:37;;;;;;;0.57;0.50;;;;;;;14.54;57.36;99897.70;1705726;82;21099;-51
2022/04/27 07:56:05;;;;;;;1.42;0.60;;;;;;;14.57;57.23;99896.13;1707341;82;21017;-51
2022/04/27 07:58:33;;;;;;;2.33;0.62;;;;;;;14.61;57.41;99895.47;1704217;82;21094;-51
2022/04/27 08:01:00;;;;;;;0.60;0.60;;;;;;;14.66;56.40;99897.39;1707107;82;21085;-51
2022/04/27 08:03:26;;;;;;;1.40;0.55;;;;;;;14.71;55.69;99894.80;1706459;82;21108;-52
2022/04/27 08:05:53;;;;;;;1.05;0.78;;;;;;;14.73;55.43;99905.52;1704752;82;21207;-52
2022/04/27 08:08:19;;;;;;;1.15;0.60;;;;;;;14.76;55.79;99904.86;1705030;82;22010;-51
2022/04/27 08:10:46;;;;;;;0.60;0.50;;;;;;;14.83;55.78;99901.27;1703926;82;21037;-52
2022/04/27 08:13:15;;;;;;;1.60;0.50;;;;;;;14.90;55.44;99905.80;1702393;82;21053;-52
2022/04/27 08:15:44;;;;;;;1.12;0.50;;;;;;;14.95;53.92;99895.08;1703300;82;21658;-51
2022/04/27 08:18:10;;;;;;;1.30;0.60;;;;;;;14.98;54.14;99900.28;1703228;82;21108;-52
2022/04/27 08:23:28;;;;;;;0.45;0.40;;;;;;;14.94;51.03;99903.30;1704119;82;21058;-51
2022/04/27 08:25:56;;;;;;;0.80;0.50;;;;;;;14.80;51.40;99906.03;1707165;82;20986;-52
2022/04/27 08:28:23;;;;;;;0.40;0.40;;;;;;;14.74;52.66;99909.49;1704904;82;22321;-51
2022/04/27 08:30:51;;;;;;;1.02;0.50;;;;;;;14.81;53.18;99914.52;1704855;82;21030;-51
2022/04/27 08:33:19;;;;;;;0.90;0.50;;;;;;;14.92;52.88;99911.53;1700782;82;21074;-52
2022/04/27 08:35:47;;;;;;;2.58;0.40;;;;;;;15.06;53.29;99917.41;1708374;82;20879;-52
2022/04/27 08:38:15;;;;;;;0.63;0.50;;;;;;;15.15;51.49;99911.40;1705013;82;20966;-52
2022/04/27 08:40:45;;;;;;;0.60;0.40;;;;;;;15.17;50.99;99906.76;1707245;82;21105;-52
2022/04/27 08:43:12;;;;;;;0.60;0.50;;;;;;;15.19;51.04;99910.25;1704210;82;21381;-52
2022/04/27 08:45:43;;;;;;;0.47;0.40;;;;;;;15.22;50.60;99914.61;1702338;82;21512;-51
2022/04/27 08:48:12;;;;;;;0.30;0.30;;;;;;;15.24;50.81;99912.16;1706025;82;21122;-50
2022/04/27 08:50:40;;;;;;;1.45;0.50;;;;;;;15.28;50.20;99910.14;1702719;82;21038;-51
2022/04/27 08:53:07;;;;;;;0.72;0.50;;;;;;;15.31;50.65;99909.44;1704100;82;22535;-51
2022/04/27 08:55:38;;;;;;;0.47;0.40;;;;;;;15.39;51.25;99917.09;1666105;85;21174;-52
2022/04/27 08:58:15;;;;;;;0.60;0.50;;;;;;;15.48;51.68;99909.72;1702947;82;21681;-52
2022/04/27 09:00:43;;;;;;;1.02;0.50;;;;;;;15.61;51.88;99916.58;1703936;82;21037;-52
2022/04/27 09:03:26;;;;;;;0.70;0.70;;;;;;;15.73;50.97;99912.58;1703103;82;20981;-52
2022/04/27 09:05:58;;;;;;;0.78;0.40;;;;;;;15.83;51.08;99910.09;1704890;82;21406;-51
2022/04/27 09:08:43;;;;;;;0.60;0.50;;;;;;;15.91;49.98;99910.44;1703312;82;21255;-52
2022/04/27 09:11:23;;;;;;;0.88;0.40;;;;;;;15.84;46.56;99909.99;1704261;82;21086;-51
2022/04/27 09:13:56;;;;;;;0.40;0.40;;;;;;;15.62;47.17;99916.97;1705701;82;22309;-52
2022/04/27 09:16:27;;;;;;;0.80;0.50;;;;;;;15.45;47.95;99912.14;1702585;82;21085;-51
2022/04/27 09:22:01;;;;;;;0.55;0.40;;;;;;;15.33;48.07;99913.41;1707256;82;21896;-52
2022/04/27 09:24:48;;;;;;;0.40;0.40;;;;;;;15.34;48.87;99907.02;1706077;82;22369;-51
2022/04/27 09:27:18;;;;;;;0.40;0.40;;;;;;;15.40;49.32;99916.09;1710218;82;21110;-50
2022/04/27 09:30:04;;;;;;;0.95;0.50;;;;;;;15.44;48.85;99910.88;1708232;82;21633;-51
2022/04/27 09:32:33;;;;;;;0.40;0.40;;;;;;;15.51;48.54;99913.56;1706891;82;21098;-52
2022/04/27 09:35:03;;;;;;;1.00;0.30;;;;;;;15.52;47.96;99915.31;1704618;82;21456;-52
2022/04/27 09:37:39;;;;;;;0.47;0.33;;;;;;;15.47;46.64;99909.33;1703707;82;21062;-51
2022/04/27 09:40:13;;;;;;;1.55;0.40;;;;;;;15.41;46.92;99914.65;1681307;83;21121;-51
2022/04/27 09:42:46;;;;;;;0.70;0.40;;;;;;;15.40;47.18;99916.97;1694203;83;21821;-52
2022/04/27 09:45:20;;;;;;;0.65;0.40;;;;;;;15.32;45.72;99913.89;1699370;83;21477;-52
2022/04/27 09:47:57;;;;;;;1.05;0.47;;;;;;;15.28;44.30;99914.20;1704388;83;22358;-53
2022/04/27 09:50:23;;;;;;;0.98;0.40;;;;;;;15.20;46.09;99906.57;1698743;82;21121;-52
2022/04/27 09:52:51;;;;;;;1.02;0.30;;;;;;;15.24;46.72;99909.45;1696669;82;21069;-53
2022/04/27 09:55:17;;;;;;;0.40;0.30;;;;;;;15.26;45.96;99903.45;1697983;82;21557;-52
2022/04/27 09:57:45;;;;;;;0.40;0.40;;;;;;;15.29;44.70;99908.69;1693471;83;21050;-51
2022/04/27 10:00:14;;;;;;;0.35;0.33;;;;;;;15.33;45.52;99911.56;1692892;83;21042;-52
2022/04/27 10:02:44;;;;;;;0.45;0.30;;;;;;;15.36;45.67;99911.86;1703558;83;20942;-53
2022/04/27 10:05:12;;;;;;;0.30;0.30;;;;;;;15.35;45.41;99914.19;1693840;83;21030;-52
2022/04/27 10:07:39;;;;;;;0.98;0.30;;;;;;;15.33;44.82;99907.98;1691215;83;21054;-51
2022/04/27 10:10:06;;;;;;;0.62;0.30;;;;;;;15.34;43.73;99913.80;1655405;85;21098;-52
2022/04/27 10:12:39;;;;;;;1.95;0.40;;;;;;;15.34;43.66;99915.16;1697259;83;20923;-51
2022/04/27 10:15:08;;;;;;;0.90;0.40;;;;;;;15.38;44.16;99907.22;1697964;82;21082;-53
2022/04/27 10:17:36;;;;;;;0.70;0.40;;;;;;;15.47;43.13;99912.05;1700609;83;21041;-52
2022/04/27 10:20:23;;;;;;;0.60;0.40;;;;;;;15.56;43.87;99918.73;1703377;83;21137;-52
2022/04/27 10:22:51;;;;;;;0.30;0.30;;;;;;;15.63;42.37;99916.87;1694830;83;21577;-55
2022/04/27 10:25:18;;;;;;;0.50;0.30;;;;;;;15.64;42.08;99915.91;1683244;82;21173;-52
2022/04/27 10:27:46;;;;;;;0.37;0.30;;;;;;;15.66;42.85;99913.06;1660127;83;20927;-52
2022/04/27 10:30:13;;;;;;;0.40;0.40;;;;;;;15.67;42.60;99917.03;1700285;82;21042;-52
2022/04/27 10:32:48;;;;;;;0.37;0.37;;;;;;;15.68;42.96;99913.35;1697685;83;21121;-52
2022/04/27 10:35:27;;;;;;;1.47;0.30;;;;;;;15.73;43.29;99917.13;1695156;82;21064;-52
2022/04/27 10:38:05;;;;;;;0.62;0.40;;;;;;;15.80;42.87;99904.89;1697469;82;21117;-52
2022/04/27 10:40:42;;;;;;;0.40;0.30;;;;;;;15.82;42.34;99909.73;1671903;83;21393;-51
2022/04/27 10:43:27;;;;;;;4.37;0.40;;;;;;;15.81;42.07;99912.06;1706653;82;21086;-52
2022/04/27 10:45:54;;;;;;;0.60;0.30;;;;;;;15.78;41.78;99917.20;1693167;82;21105;-51
2022/04/27 10:48:30;;;;;;;1.02;0.33;;;;;;;15.74;41.69;99914.77;1707074;82;21098;-51
2022/04/27 10:51:03;;;;;;;0.40;0.30;;;;;;;15.74;42.54;99928.34;1704178;82;21132;-52
2022/04/27 10:53:40;;;;;;;0.40;0.30;;;;;;;15.73;41.49;99922.08;1705086;82;21105;-51
2022/04/27 10:56:23;;;;;;;0.20;0.20;;;;;;;15.75;39.82;99921.46;1707166;82;21041;-52
2022/04/27 10:58:49;;;;;;;0.42;0.30;;;;;;;15.78;37.81;99925.83;1673583;83;21054;-52
2022/04/27 11:01:20;;;;;;;0.30;0.30;;;;;;;15.67;36.58;99910.73;1707424;82;21094;-52
2022/04/27 11:04:00;;;;;;;0.37;0.28;;;;;;;15.62;37.77;99918.33;1704293;82;21613;-51
2022/04/27 11:06:27;;;;;;;0.20;0.20;;;;;;;15.62;38.11;99924.63;1706185;82;21049;-52
2022/04/27 11:09:13;;;;;;;0.65;0.30;;;;;;;15.64;37.82;99924.52;1697937;82;21101;-52
2022/04/27 11:11:54;;;;;;;0.72;0.30;;;;;;;15.66;38.94;99928.86;1704469;82;21053;-51
2022/04/27 11:14:29;;;;;;;0.30;0.28;;;;;;;15.72;39.66;99916.74;1710338;82;21089;-50
2022/04/27 11:16:57;;;;;;;1.05;0.30;;;;;;;15.80;39.17;99926.60;1701561;82;21049;-52
2022/04/27 11:19:36;;;;;;;0.30;0.25;;;;;;;15.86;37.17;99928.89;1706132;82;21046;-54
2022/04/27 11:22:14;;;;;;;0.28;0.28;;;;;;;15.88;37.76;99924.24;1701470;82;21563;-53
2022/04/27 11:24:42;;;;;;;0.25;0.20;;;;;;;15.86;38.06;99922.11;1704449;82;21050;-51
2022/04/27 11:27:09;;;;;;;0.70;0.25;;;;;;;15.87;37.83;99928.80;1702540;82;21452;-51
2022/04/27 11:29:36;;;;;;;3.05;0.20;;;;;;;15.88;37.41;99925.11;1704498;82;21091;-51
2022/04/27 11:32:06;;;;;;;0.57;0.30;;;;;;;15.87;37.55;99920.66;1702789;82;21110;-50
2022/04/27 11:34:33;;;;;;;0.30;0.30;;;;;;;15.90;36.74;99922.30;1706433;82;21404;-51
2022/04/27 11:37:17;;;;;;;1.20;0.30;;;;;;;15.94;37.43;99920.23;1704647;82;21113;-53
2022/04/27 11:39:46;;;;;;;1.50;0.25;;;;;;;15.97;37.44;99913.25;1664861;84;21097;-51
2022/04/27 11:42:13;;;;;;;0.20;0.20;;;;;;;16.00;37.91;99913.02;1699698;83;21151;-51
2022/04/27 11:44:41;;;;;;;0.30;0.30;;;;;;;16.01;38.29;99903.91;1695267;83;21448;-50
2022/04/27 11:47:28;;;;;;;0.30;0.20;;;;;;;16.01;37.91;99912.05;1692149;83;21538;-51
2022/04/27 11:49:59;;;;;;;1.75;0.30;;;;;;;15.98;37.71;99901.42;1673088;83;20990;-51
2022/04/27 11:52:28;;;;;;;0.23;0.23;;;;;;;15.96;37.80;99901.52;1693225;82;21389;-52
2022/04/27 11:55:08;;;;;;;0.40;0.30;;;;;;;15.99;37.71;99905.36;1695961;83;21154;-52
2022/04/27 11:57:36;;;;;;;0.78;0.30;;;;;;;16.02;37.67;99905.16;1696257;82;21097;-51
2022/04/27 12:00:03;;;;;;;0.40;0.20;;;;;;;16.05;37.14;99907.68;1702347;82;21050;-51
2022/04/27 12:02:34;;;;;;;0.60;0.30;;;;;;;16.07;36.88;99898.95;1695159;82;21445;-52
2022/04/27 12:05:00;;;;;;;0.20;0.20;;;;;;;16.10;36.97;99900.56;1698164;82;20963;-52
2022/04/27 12:07:37;;;;;;;0.30;0.20;;;;;;;16.14;38.07;99900.75;1698248;82;20950;-51
2022/04/27 12:10:10;;;;;;;0.30;0.20;;;;;;;16.19;37.83;99901.29;1699362;82;21054;-51